Time;durP1;ratioP1;P1;durP2;ratioP2;P2;SDS_P1;SDS_P2;PMS_P1;PMS_P2;Temp;Humidity;BMP_temperature;BMP_pressure;BME280_temperature;BME280_humidity;BME280_pressure;Samples;Min_cycle;Max_cycle;Signal;HPM_P1;HPM_P2
2021/12/17 00:01:11;;;;;;;77.90;49.97;;;21.20;95.00;;;;;;4179253;28;20446;-72
2021/12/17 00:03:31;;;;;;;78.75;52.38;;;21.30;94.90;;;;;;4163062;28;20041;-72
2021/12/17 00:07:53;;;;;;;76.43;46.70;;;21.30;95.10;;;;;;4163508;28;20057;-72
2021/12/17 00:10:03;;;;;;;70.15;46.22;;;21.20;95.20;;;;;;4164204;28;20050;-72
2021/12/17 00:12:11;;;;;;;71.97;46.13;;;21.40;94.90;;;;;;4147057;28;20045;-72
2021/12/17 00:14:25;;;;;;;68.75;45.40;;;21.20;95.40;;;;;;4163993;28;20495;-72
2021/12/17 00:16:35;;;;;;;67.97;46.03;;;21.30;95.40;;;;;;4167449;28;20099;-74
2021/12/17 00:18:55;;;;;;;70.55;45.50;;;21.40;95.10;;;;;;4179965;28;20526;-72
2021/12/17 00:48:37;;;;;;;73.45;44.95;;;21.80;95.10;;;;;;4159395;28;20128;-71
2021/12/17 00:52:48;;;;;;;68.65;47.95;;;21.90;95.10;;;;;;4174711;28;20084;-70
2021/12/17 00:54:53;;;;;;;76.03;47.97;;;22.00;95.10;;;;;;4176287;28;20045;-72
2021/12/17 00:57:04;;;;;;;73.28;45.53;;;22.10;95.00;;;;;;4158186;28;20039;-74
2021/12/17 00:59:08;;;;;;;75.13;46.03;;;22.20;95.10;;;;;;4174587;28;20041;-72
2021/12/17 01:01:13;;;;;;;77.30;44.30;;;22.20;95.20;;;;;;4158378;28;20045;-71
2021/12/17 01:03:18;;;;;;;65.32;40.70;;;22.20;95.30;;;;;;4176114;28;20495;-71
2021/12/17 01:05:27;;;;;;;60.35;38.45;;;22.30;95.10;;;;;;4176559;28;20188;-72
2021/12/17 01:07:34;;;;;;;56.92;35.95;;;22.30;95.50;;;;;;4158052;28;20532;-73
2021/12/17 01:09:40;;;;;;;52.92;34.65;;;22.30;95.50;;;;;;4176528;28;20584;-74
2021/12/17 01:11:45;;;;;;;46.65;31.63;;;22.30;95.50;;;;;;4158466;28;20140;-72
2021/12/17 01:14:02;;;;;;;41.10;29.30;;;22.50;95.50;;;;;;4158071;28;20320;-72
2021/12/17 01:16:18;;;;;;;43.78;27.42;;;22.40;95.60;;;;;;4160201;28;20033;-71
2021/12/17 01:18:52;;;;;;;40.50;28.73;;;22.40;95.70;;;;;;4172984;28;20053;-72
2021/12/17 01:36:00;;;;;;;33.97;23.10;;;23.00;95.30;;;;;;4173969;28;20471;-71
2021/12/17 01:42:47;;;;;;;42.10;23.98;;;23.10;95.60;;;;;;4158402;28;20331;-70
2021/12/17 01:44:52;;;;;;;34.75;23.00;;;23.20;95.50;;;;;;4158200;28;20068;-70
2021/12/17 01:46:57;;;;;;;31.70;21.35;;;23.20;95.60;;;;;;4172908;28;20049;-70
2021/12/17 02:00:32;;;;;;;27.60;18.25;;;23.40;94.80;;;;;;4171228;28;20049;-70
2021/12/17 03:56:17;;;;;;;6.05;4.85;;;26.00;87.10;;;;;;4187439;28;20448;-71
2021/12/17 03:58:23;;;;;;;12.38;4.85;;;26.40;86.60;;;;;;4176940;28;20083;-71
2021/12/17 04:00:29;;;;;;;9.13;4.72;;;26.30;86.30;;;;;;4183845;28;20041;-71
2021/12/17 04:02:38;;;;;;;6.95;4.50;;;26.40;86.00;;;;;;4166188;28;20632;-71
2021/12/17 04:04:43;;;;;;;6.90;3.80;;;26.40;86.40;;;;;;4191116;28;20045;-71
2021/12/17 04:07:00;;;;;;;7.07;4.65;;;26.40;86.10;;;;;;4192177;28;20417;-71
2021/12/17 04:09:20;;;;;;;7.70;4.72;;;26.50;85.70;;;;;;4176592;28;20045;-71
2021/12/17 04:11:33;;;;;;;9.02;4.80;;;26.50;85.80;;;;;;4185654;28;20450;-71
2021/12/17 04:13:53;;;;;;;;;;;26.60;85.60;;;;;;4182372;28;20075;-71
2021/12/17 04:16:03;;;;;;;7.03;4.80;;;26.70;85.50;;;;;;4184394;28;19926;-71
2021/12/17 04:18:10;;;;;;;8.80;4.72;;;26.70;85.00;;;;;;4184010;28;20434;-71
2021/12/17 04:20:15;;;;;;;6.63;4.40;;;26.70;84.50;;;;;;4180817;28;20056;-71
2021/12/17 04:22:20;;;;;;;9.20;4.65;;;27.00;84.70;;;;;;4189089;28;20043;-71
2021/12/17 04:24:24;;;;;;;6.25;4.70;;;27.20;82.80;;;;;;4191024;28;20060;-71
2021/12/17 04:26:28;;;;;;;9.82;4.60;;;27.10;83.60;;;;;;4190629;28;20139;-71
2021/12/17 04:28:46;;;;;;;6.50;4.35;;;27.00;84.00;;;;;;4187116;28;20052;-70
2021/12/17 04:30:53;;;;;;;11.60;4.85;;;27.00;83.70;;;;;;4189518;28;20045;-70
2021/12/17 04:32:58;;;;;;;6.32;4.30;;;27.00;84.20;;;;;;4189917;28;20249;-70
2021/12/17 04:35:04;;;;;;;7.18;4.30;;;27.20;83.60;;;;;;4185943;28;20045;-71
2021/12/17 04:37:17;;;;;;;9.85;5.88;;;27.10;83.70;;;;;;4187419;28;20453;-71
2021/12/17 04:39:28;;;;;;;8.93;4.53;;;27.20;83.40;;;;;;4178889;28;20048;-71
2021/12/17 04:44:11;;;;;;;5.82;4.10;;;27.30;83.50;;;;;;4189677;28;20128;-71
2021/12/17 04:46:28;;;;;;;11.48;4.97;;;27.30;83.60;;;;;;4190498;28;20095;-71
2021/12/17 04:58:08;;;;;;;5.75;4.05;;;27.50;82.60;;;;;;4168971;28;20139;-72
2021/12/17 05:00:17;;;;;;;9.40;4.78;;;27.60;82.60;;;;;;4178177;28;20536;-72
2021/12/17 05:02:29;;;;;;;6.22;3.97;;;27.60;82.40;;;;;;4178580;28;20072;-72
2021/12/17 05:04:42;;;;;;;5.60;4.25;;;27.80;81.10;;;;;;4178537;28;20037;-71
2021/12/17 05:06:48;;;;;;;6.13;4.20;;;27.80;81.30;;;;;;4177394;28;20043;-71
2021/12/17 05:08:58;;;;;;;8.57;4.03;;;27.80;81.00;;;;;;4179971;28;20102;-71
2021/12/17 05:20:41;;;;;;;4.97;3.60;;;27.60;81.00;;;;;;4178387;28;20132;-72
2021/12/17 05:22:52;;;;;;;7.00;3.58;;;27.60;81.00;;;;;;4179474;28;20060;-72
2021/12/17 05:24:56;;;;;;;7.53;3.58;;;27.80;80.80;;;;;;4179208;28;20047;-71
2021/12/17 05:27:01;;;;;;;5.00;3.90;;;28.00;81.30;;;;;;4179290;28;20063;-71
2021/12/17 05:29:08;;;;;;;7.35;4.00;;;27.80;80.20;;;;;;4179170;28;20076;-71
2021/12/17 05:31:21;;;;;;;5.82;3.88;;;28.00;80.20;;;;;;4179327;28;20403;-70
2021/12/17 05:33:28;;;;;;;8.48;3.90;;;28.10;80.20;;;;;;4179042;28;20037;-71
2021/12/17 05:35:33;;;;;;;6.68;3.92;;;28.20;79.50;;;;;;4178612;28;20052;-72
2021/12/17 05:37:41;;;;;;;10.13;3.88;;;28.30;78.50;;;;;;4175639;28;20039;-72
2021/12/17 05:39:46;;;;;;;7.47;4.07;;;28.50;78.80;;;;;;4176345;28;20049;-72
2021/12/17 05:41:52;;;;;;;9.20;3.85;;;28.50;79.00;;;;;;4173463;28;20581;-71
2021/12/17 05:44:18;;;;;;;5.68;4.20;;;28.50;78.60;;;;;;4176948;28;20048;-72
2021/12/17 05:46:37;;;;;;;8.23;3.78;;;28.60;78.70;;;;;;4176553;28;20513;-72
2021/12/17 05:48:42;;;;;;;8.55;3.33;;;28.50;78.70;;;;;;4176246;28;20411;-72
2021/12/17 05:50:47;;;;;;;7.10;4.38;;;28.40;78.50;;;;;;4168962;28;20045;-74
2021/12/17 05:52:51;;;;;;;6.95;4.32;;;28.30;78.30;;;;;;4160275;28;20053;-72
2021/12/17 05:54:59;;;;;;;8.35;4.78;;;28.20;78.60;;;;;;4159867;28;20049;-72
2021/12/17 05:57:03;;;;;;;7.55;4.03;;;28.30;79.20;;;;;;4160036;28;20037;-72
2021/12/17 05:59:11;;;;;;;5.18;4.28;;;28.30;79.20;;;;;;4169173;28;20051;-71
2021/12/17 06:01:15;;;;;;;8.40;3.80;;;28.30;78.80;;;;;;4175837;28;20095;-72
2021/12/17 06:03:25;;;;;;;5.25;3.78;;;28.50;77.70;;;;;;4176513;28;20045;-72
2021/12/17 06:05:39;;;;;;;5.35;3.90;;;28.50;77.50;;;;;;4175421;28;20045;-72
2021/12/17 06:07:44;;;;;;;11.05;3.65;;;28.30;77.80;;;;;;4175647;28;20305;-72
2021/12/17 06:09:49;;;;;;;9.50;4.03;;;28.30;78.10;;;;;;4176441;28;20056;-72
2021/12/17 06:11:57;;;;;;;6.50;3.83;;;28.20;78.60;;;;;;4176357;28;20062;-72
2021/12/17 06:14:01;;;;;;;6.57;4.20;;;28.20;78.20;;;;;;4175831;28;20041;-72
2021/12/17 06:16:11;;;;;;;6.80;3.83;;;28.20;78.50;;;;;;4176204;28;20199;-72
2021/12/17 06:18:17;;;;;;;5.43;3.97;;;28.30;78.00;;;;;;4176116;28;20350;-72
2021/12/17 06:20:23;;;;;;;7.53;3.78;;;28.30;77.80;;;;;;4175536;28;20053;-72
2021/12/17 06:22:32;;;;;;;6.53;3.67;;;28.20;77.70;;;;;;4175464;28;20079;-72
2021/12/17 06:24:44;;;;;;;6.00;3.97;;;28.20;77.90;;;;;;4175855;28;20049;-72
2021/12/17 06:26:50;;;;;;;5.82;3.65;;;28.30;77.50;;;;;;4176094;28;20111;-71
2021/12/17 06:28:54;;;;;;;6.45;3.55;;;28.40;77.50;;;;;;4159938;28;20676;-72
2021/12/17 06:31:00;;;;;;;6.20;3.95;;;28.50;77.70;;;;;;4175926;28;20432;-71
2021/12/17 06:33:08;;;;;;;5.95;4.15;;;28.50;78.40;;;;;;4176074;28;20096;-72
2021/12/17 06:35:12;;;;;;;9.02;3.65;;;28.60;78.00;;;;;;4174894;28;20080;-72
2021/12/17 06:37:18;;;;;;;5.65;3.40;;;28.60;77.50;;;;;;4176540;28;20056;-71
2021/12/17 06:39:24;;;;;;;4.10;3.00;;;28.80;76.80;;;;;;4175860;28;20580;-71
2021/12/17 06:41:28;;;;;;;4.38;3.05;;;29.00;76.40;;;;;;4175676;28;20672;-71
2021/12/17 06:43:38;;;;;;;4.88;3.28;;;29.10;76.20;;;;;;4175966;28;20072;-72
2021/12/17 06:48:10;;;;;;;6.18;3.13;;;28.80;76.50;;;;;;4177930;28;20156;-72
2021/12/17 07:17:30;;;;;;;3.70;3.17;;;28.80;77.20;;;;;;4178814;28;20049;-70
2021/12/17 07:20:52;;;;;;;7.05;3.55;;;28.80;77.10;;;;;;4168346;28;20091;-71
2021/12/17 07:33:36;;;;;;;7.40;3.78;;;29.00;76.20;;;;;;4172535;28;20087;-73
2021/12/17 07:35:55;;;;;;;6.07;3.60;;;29.10;76.00;;;;;;4177267;28;20044;-72
2021/12/17 07:40:20;;;;;;;7.53;3.75;;;29.10;75.40;;;;;;4160940;28;20037;-71
2021/12/17 07:42:28;;;;;;;5.45;4.10;;;29.00;75.90;;;;;;4171651;28;20489;-72
2021/12/17 07:44:48;;;;;;;9.63;4.30;;;29.00;76.40;;;;;;4174448;28;20080;-72
2021/12/17 07:47:09;;;;;;;5.30;3.70;;;29.00;76.50;;;;;;4171616;28;20044;-72
2021/12/17 07:49:13;;;;;;;10.13;4.10;;;28.90;76.30;;;;;;4175832;28;20047;-72
2021/12/17 07:51:19;;;;;;;5.20;3.65;;;28.90;76.30;;;;;;4176291;28;20076;-72
2021/12/17 07:53:32;;;;;;;7.20;3.25;;;29.00;76.50;;;;;;4175182;28;20037;-71
2021/12/17 07:55:41;;;;;;;7.30;3.35;;;29.10;75.90;;;;;;4176726;28;20083;-71
2021/12/17 07:57:51;;;;;;;11.93;3.38;;;29.10;75.80;;;;;;4177641;28;20132;-72
2021/12/17 08:00:05;;;;;;;6.93;3.55;;;29.00;75.90;;;;;;4175918;28;20553;-71
2021/12/17 08:02:17;;;;;;;11.73;3.47;;;29.00;75.20;;;;;;4178580;28;20055;-72
2021/12/17 08:04:30;;;;;;;6.95;3.38;;;28.90;75.30;;;;;;4176913;28;20061;-71
2021/12/17 08:06:42;;;;;;;9.55;3.42;;;28.90;75.30;;;;;;4177181;28;20037;-72
2021/12/17 08:08:51;;;;;;;6.25;4.07;;;29.00;75.30;;;;;;4176762;28;20096;-72
2021/12/17 08:11:01;;;;;;;11.48;4.40;;;29.00;75.70;;;;;;4176551;28;20041;-72
2021/12/17 08:13:08;;;;;;;9.82;5.25;;;29.00;75.70;;;;;;4178430;28;20053;-71
2021/12/17 08:15:14;;;;;;;9.75;5.03;;;28.90;75.90;;;;;;4176271;28;20056;-72
2021/12/17 08:31:00;;;;;;;9.32;3.30;;;28.90;75.80;;;;;;4166761;28;20041;-71
2021/12/17 08:33:08;;;;;;;7.03;3.80;;;28.90;75.40;;;;;;4179761;28;20041;-71
2021/12/17 08:35:13;;;;;;;5.22;3.58;;;28.90;75.70;;;;;;4164684;28;20045;-71
2021/12/17 08:37:18;;;;;;;8.57;3.80;;;28.80;75.90;;;;;;4178046;28;20478;-71
2021/12/17 08:39:26;;;;;;;9.55;4.82;;;28.80;76.10;;;;;;4177715;28;20164;-71
2021/12/17 08:41:31;;;;;;;7.07;4.20;;;28.80;76.10;;;;;;4179381;28;20041;-71
2021/12/17 08:43:37;;;;;;;4.43;3.58;;;28.80;75.90;;;;;;4179223;28;20399;-72
2021/12/17 08:45:44;;;;;;;7.97;3.60;;;28.80;75.80;;;;;;4177473;28;20450;-71
2021/12/17 08:48:00;;;;;;;13.93;4.35;;;28.80;76.00;;;;;;4178736;28;20110;-71
2021/12/17 08:50:18;;;;;;;9.52;4.40;;;28.80;75.80;;;;;;4179527;28;20656;-72
2021/12/17 08:52:23;;;;;;;10.38;4.60;;;28.80;75.80;;;;;;4177514;28;20045;-71
2021/12/17 08:54:28;;;;;;;11.32;4.78;;;28.80;76.10;;;;;;4169184;28;20414;-71
2021/12/17 08:56:42;;;;;;;7.45;4.50;;;28.80;75.80;;;;;;4163254;28;20091;-72
2021/12/17 08:58:52;;;;;;;9.52;4.72;;;28.80;75.40;;;;;;4175686;28;20049;-72
2021/12/17 09:01:04;;;;;;;8.95;5.18;;;28.80;75.80;;;;;;4179661;28;20417;-72
2021/12/17 09:03:12;;;;;;;7.07;4.75;;;28.80;76.10;;;;;;4178843;28;20055;-72
2021/12/17 09:05:29;;;;;;;13.75;4.50;;;28.80;76.20;;;;;;4180109;28;20037;-72
2021/12/17 09:07:33;;;;;;;8.30;3.92;;;28.80;76.10;;;;;;4179481;28;20570;-72
2021/12/17 09:09:57;;;;;;;7.15;4.18;;;28.80;75.90;;;;;;4180143;28;20045;-72
2021/12/17 09:12:08;;;;;;;8.93;5.53;;;28.80;75.60;;;;;;4177759;28;20069;-72
2021/12/17 09:14:15;;;;;;;14.25;7.05;;;28.80;75.80;;;;;;4178825;28;20068;-72
2021/12/17 09:16:28;;;;;;;16.33;7.45;;;28.70;75.60;;;;;;4178040;28;20132;-72
2021/12/17 09:18:33;;;;;;;14.32;7.03;;;28.70;76.20;;;;;;4179470;28;20534;-73
2021/12/17 09:20:47;;;;;;;8.07;5.38;;;28.70;76.30;;;;;;4178770;28;20049;-72
2021/12/17 09:22:53;;;;;;;9.82;5.00;;;28.70;76.20;;;;;;4179596;28;20103;-72
2021/12/17 09:25:00;;;;;;;9.38;5.15;;;28.70;76.60;;;;;;4178971;28;20521;-72
2021/12/17 09:27:17;;;;;;;8.25;5.13;;;28.60;76.60;;;;;;4167801;28;20046;-72
2021/12/17 09:29:34;;;;;;;9.43;4.75;;;28.60;76.70;;;;;;4164351;28;20456;-72
2021/12/17 09:31:38;;;;;;;7.80;4.70;;;28.60;76.90;;;;;;4176971;28;20055;-72
2021/12/17 09:33:44;;;;;;;9.68;5.32;;;28.60;76.80;;;;;;4180260;28;20041;-72
2021/12/17 09:35:51;;;;;;;14.10;4.90;;;28.60;76.70;;;;;;4179566;28;20049;-72
2021/12/17 09:37:57;;;;;;;7.30;4.75;;;28.60;76.90;;;;;;4178516;28;20045;-71
2021/12/17 09:40:06;;;;;;;8.63;4.50;;;28.60;76.90;;;;;;4178911;28;20048;-71
2021/12/17 09:42:10;;;;;;;10.30;5.88;;;28.60;77.20;;;;;;4178367;28;20103;-71
2021/12/17 09:44:15;;;;;;;12.32;5.00;;;28.60;77.40;;;;;;4178652;28;20144;-71
2021/12/17 09:46:19;;;;;;;11.32;5.05;;;28.60;77.40;;;;;;4177627;28;20071;-71
2021/12/17 09:48:24;;;;;;;16.65;5.00;;;28.60;77.50;;;;;;4157173;28;20136;-71
2021/12/17 09:50:28;;;;;;;9.75;4.90;;;28.50;77.50;;;;;;4157019;28;20523;-71
2021/12/17 09:52:33;;;;;;;9.50;5.53;;;28.50;77.60;;;;;;4161773;28;20038;-71
2021/12/17 09:54:38;;;;;;;20.83;6.70;;;28.50;77.80;;;;;;4161662;28;20052;-70
2021/12/17 09:56:43;;;;;;;16.08;6.63;;;28.40;78.00;;;;;;4167035;28;20887;-72
2021/12/17 09:58:48;;;;;;;15.00;6.22;;;28.50;78.20;;;;;;4163194;28;20068;-73
2021/12/17 10:00:53;;;;;;;16.20;6.60;;;28.50;78.30;;;;;;4163674;28;20058;-73
2021/12/17 10:02:57;;;;;;;10.57;6.00;;;28.50;78.20;;;;;;4173025;28;20143;-72
2021/12/17 10:05:02;;;;;;;10.77;5.72;;;28.50;78.20;;;;;;4169613;28;20544;-73
2021/12/17 10:07:20;;;;;;;14.23;7.20;;;28.40;78.10;;;;;;4170054;28;20057;-73
2021/12/17 10:09:33;;;;;;;16.08;7.90;;;28.40;78.20;;;;;;4170932;28;20104;-71
2021/12/17 10:11:37;;;;;;;12.48;7.82;;;28.40;78.30;;;;;;4167569;28;20053;-70
2021/12/17 10:13:41;;;;;;;15.43;8.30;;;28.40;78.50;;;;;;4170086;28;20037;-71
2021/12/17 10:15:48;;;;;;;12.15;7.13;;;28.40;78.60;;;;;;4172050;28;20084;-71
2021/12/17 10:17:58;;;;;;;12.68;7.30;;;28.40;78.60;;;;;;4170859;28;20072;-71
2021/12/17 10:20:04;;;;;;;13.55;6.85;;;28.40;78.70;;;;;;4168414;28;20044;-71
2021/12/17 10:22:13;;;;;;;12.43;7.60;;;28.40;79.50;;;;;;4169144;28;20056;-71
2021/12/17 10:24:23;;;;;;;13.88;7.35;;;28.40;78.90;;;;;;4171417;28;20396;-71
2021/12/17 10:26:30;;;;;;;16.52;7.90;;;28.30;78.90;;;;;;4171465;28;20406;-72
2021/12/17 10:28:34;;;;;;;15.70;8.10;;;28.40;79.00;;;;;;4171361;28;20493;-72
2021/12/17 10:30:40;;;;;;;17.27;8.70;;;28.30;79.30;;;;;;4164002;28;20593;-72
2021/12/17 10:32:46;;;;;;;17.10;9.32;;;28.40;79.30;;;;;;4165416;28;20048;-72
2021/12/17 10:35:02;;;;;;;22.25;10.02;;;28.30;79.20;;;;;;4170884;28;20034;-72
2021/12/17 10:37:06;;;;;;;14.32;9.68;;;28.30;79.40;;;;;;4170137;28;20337;-72
2021/12/17 10:39:24;;;;;;;17.42;10.05;;;28.20;79.50;;;;;;4173101;28;20513;-71
2021/12/17 10:41:28;;;;;;;13.82;8.55;;;28.20;79.60;;;;;;4166946;28;20087;-72
2021/12/17 10:43:37;;;;;;;16.42;8.57;;;28.20;79.70;;;;;;4171437;28;20384;-72
2021/12/17 10:45:48;;;;;;;16.45;8.30;;;28.20;79.60;;;;;;4169409;28;20045;-72
2021/12/17 10:48:22;;;;;;;10.63;7.45;;;28.10;79.80;;;;;;4168712;28;20123;-72
2021/12/17 10:50:28;;;;;;;27.33;8.63;;;28.10;79.90;;;;;;4168461;28;20092;-71
2021/12/17 10:52:40;;;;;;;16.17;7.70;;;28.10;80.10;;;;;;4168515;28;20033;-72
2021/12/17 10:54:45;;;;;;;15.20;8.50;;;28.10;80.10;;;;;;4170770;28;20083;-71
2021/12/17 10:56:54;;;;;;;12.73;7.90;;;28.10;80.10;;;;;;4168328;28;20084;-72
2021/12/17 10:59:10;;;;;;;16.38;8.55;;;28.10;80.20;;;;;;4167938;28;20207;-72
2021/12/17 11:01:15;;;;;;;20.25;8.10;;;28.10;80.10;;;;;;4166837;28;20471;-72
2021/12/17 11:03:19;;;;;;;15.88;7.90;;;28.00;80.10;;;;;;4169405;28;20056;-70
2021/12/17 11:05:24;;;;;;;15.68;7.30;;;28.10;80.30;;;;;;4165672;28;20064;-71
2021/12/17 11:07:28;;;;;;;15.13;7.15;;;28.00;80.30;;;;;;4168177;28;20041;-70
2021/12/17 11:09:45;;;;;;;15.73;6.97;;;28.00;80.30;;;;;;4168601;28;20487;-70
2021/12/17 11:11:50;;;;;;;13.32;6.80;;;28.00;80.50;;;;;;4165831;28;20727;-71
2021/12/17 11:14:00;;;;;;;16.80;6.35;;;28.00;80.40;;;;;;4168489;28;20037;-71
2021/12/17 11:16:05;;;;;;;13.48;6.90;;;28.00;80.40;;;;;;4169214;28;20136;-71
2021/12/17 11:18:10;;;;;;;13.50;6.45;;;28.00;80.60;;;;;;4170164;28;20052;-71
2021/12/17 11:20:23;;;;;;;14.90;6.15;;;28.00;80.70;;;;;;4169752;28;20057;-71
2021/12/17 11:22:29;;;;;;;10.40;6.43;;;28.00;80.80;;;;;;4171545;28;20048;-71
2021/12/17 11:24:34;;;;;;;11.70;6.18;;;28.00;80.80;;;;;;4156197;28;20044;-71
2021/12/17 11:26:40;;;;;;;12.88;6.70;;;28.00;80.80;;;;;;4173373;28;20414;-70
2021/12/17 11:28:46;;;;;;;12.50;6.32;;;28.00;80.80;;;;;;4170034;28;20499;-71
2021/12/17 11:30:51;;;;;;;17.13;7.05;;;28.00;80.90;;;;;;4172225;28;20360;-71
2021/12/17 11:32:56;;;;;;;13.57;6.32;;;28.00;80.90;;;;;;4173542;28;20052;-72
2021/12/17 11:35:02;;;;;;;14.40;7.05;;;28.00;81.00;;;;;;4173838;28;20045;-72
2021/12/17 11:37:07;;;;;;;15.73;6.78;;;27.90;81.00;;;;;;4172603;28;20037;-72
2021/12/17 11:39:22;;;;;;;13.88;6.28;;;27.90;81.00;;;;;;4170468;28;20866;-71
2021/12/17 11:41:47;;;;;;;10.65;7.28;;;27.90;81.10;;;;;;4171884;28;20060;-70
2021/12/17 11:44:00;;;;;;;14.10;6.88;;;27.90;81.30;;;;;;4171662;28;20053;-70
2021/12/17 11:46:12;;;;;;;9.98;6.65;;;27.90;81.40;;;;;;4172796;28;20040;-72
2021/12/17 11:48:22;;;;;;;15.07;6.53;;;27.80;81.30;;;;;;4173926;28;20377;-70
2021/12/17 11:50:26;;;;;;;13.20;7.45;;;27.80;81.50;;;;;;4172931;28;20041;-70
2021/12/17 11:52:46;;;;;;;11.98;6.88;;;27.80;81.50;;;;;;4123287;28;20046;-70
2021/12/17 11:54:50;;;;;;;15.88;8.40;;;27.80;81.50;;;;;;4130612;28;20046;-70
2021/12/17 11:56:55;;;;;;;14.90;8.38;;;27.80;81.40;;;;;;4132741;28;20493;-70
2021/12/17 11:59:00;;;;;;;13.10;8.07;;;27.70;81.30;;;;;;4120122;28;20054;-71
2021/12/17 12:01:05;;;;;;;17.55;8.75;;;27.70;81.10;;;;;;4119593;28;20046;-71
2021/12/17 12:03:22;;;;;;;12.15;8.02;;;27.70;81.20;;;;;;4121985;28;20575;-71
2021/12/17 12:05:37;;;;;;;18.02;8.77;;;27.70;81.20;;;;;;4120993;28;20085;-71
2021/12/17 12:07:42;;;;;;;16.63;8.32;;;27.70;81.30;;;;;;4123690;28;20570;-71
2021/12/17 12:10:11;;;;;;;14.40;7.80;;;27.70;81.20;;;;;;4124560;28;20352;-70
2021/12/17 12:12:16;;;;;;;14.70;7.95;;;27.60;81.30;;;;;;4120460;28;20480;-71
2021/12/17 12:14:31;;;;;;;13.05;7.38;;;27.60;81.20;;;;;;4119682;28;20137;-69
2021/12/17 12:16:36;;;;;;;13.13;7.90;;;27.60;80.80;;;;;;4126145;28;20051;-70
2021/12/17 12:18:41;;;;;;;12.23;7.78;;;27.60;81.00;;;;;;4051912;29;20052;-70
2021/12/17 12:20:52;;;;;;;14.65;8.05;;;27.60;81.00;;;;;;4063450;29;20673;-70
2021/12/17 12:23:18;;;;;;;12.70;7.90;;;27.50;80.80;;;;;;4064139;29;20056;-69
2021/12/17 12:25:32;;;;;;;13.13;7.68;;;27.60;80.70;;;;;;4063715;29;20101;-70
2021/12/17 12:27:45;;;;;;;12.43;7.35;;;27.50;80.30;;;;;;4063606;29;20048;-70
2021/12/17 12:29:56;;;;;;;11.73;8.05;;;27.50;80.40;;;;;;4060960;28;20126;-70
2021/12/17 12:32:13;;;;;;;12.48;7.40;;;27.50;80.50;;;;;;4095908;28;20047;-70
2021/12/17 12:34:19;;;;;;;13.60;7.80;;;27.50;80.60;;;;;;4111318;28;20055;-70
2021/12/17 12:36:55;;;;;;;11.10;7.45;;;27.50;80.50;;;;;;4110926;28;20055;-70
2021/12/17 12:39:22;;;;;;;14.77;8.65;;;27.50;80.50;;;;;;4111405;28;20063;-70
2021/12/17 12:41:28;;;;;;;17.30;9.00;;;27.40;80.70;;;;;;4110767;28;20051;-70
2021/12/17 12:43:33;;;;;;;15.45;10.32;;;27.40;80.80;;;;;;4111409;28;20050;-70
2021/12/17 12:45:40;;;;;;;17.08;11.30;;;27.40;80.60;;;;;;4111026;28;20054;-70
2021/12/17 12:47:54;;;;;;;19.10;11.77;;;27.40;80.60;;;;;;4110611;28;20042;-70
2021/12/17 12:50:11;;;;;;;18.35;10.82;;;27.30;80.60;;;;;;4127673;28;20049;-70
2021/12/17 12:52:25;;;;;;;17.92;10.10;;;27.30;80.60;;;;;;4153981;28;20045;-70
2021/12/17 12:54:29;;;;;;;15.18;9.02;;;27.30;80.40;;;;;;4159700;28;20053;-70
2021/12/17 12:56:34;;;;;;;13.05;7.90;;;27.30;80.40;;;;;;4146406;28;20053;-69
2021/12/17 12:58:39;;;;;;;14.63;8.20;;;27.30;80.40;;;;;;4178745;28;20064;-70
2021/12/17 13:00:54;;;;;;;14.70;7.13;;;27.20;80.20;;;;;;4161121;28;20606;-70
2021/12/17 13:03:03;;;;;;;14.10;7.22;;;27.30;81.00;;;;;;4177823;28;20075;-70
2021/12/17 13:05:07;;;;;;;14.38;7.35;;;27.20;80.20;;;;;;4178979;28;20563;-70
2021/12/17 13:07:16;;;;;;;12.52;6.75;;;27.20;80.20;;;;;;4176938;28;20572;-70
2021/12/17 13:09:29;;;;;;;14.48;7.22;;;27.20;80.30;;;;;;4167139;28;20522;-70
2021/12/17 13:11:42;;;;;;;9.18;6.45;;;27.20;80.40;;;;;;4162229;28;20049;-70
2021/12/17 13:13:53;;;;;;;12.02;6.78;;;27.20;80.40;;;;;;4145909;28;20057;-70
2021/12/17 13:16:09;;;;;;;13.25;6.70;;;27.20;80.70;;;;;;4162025;28;20313;-70
2021/12/17 13:20:54;;;;;;;13.52;7.97;;;27.10;80.70;;;;;;4177247;28;20052;-69
2021/12/17 13:23:12;;;;;;;16.80;7.78;;;27.10;80.60;;;;;;4172504;28;20076;-70
2021/12/17 13:25:27;;;;;;;12.82;8.07;;;27.10;80.50;;;;;;4175262;28;20049;-70
2021/12/17 13:27:31;;;;;;;12.13;8.15;;;27.10;80.70;;;;;;4175808;28;20040;-70
2021/12/17 13:29:38;;;;;;;9.90;7.18;;;27.00;80.60;;;;;;4176499;28;20049;-70
2021/12/17 13:31:49;;;;;;;13.77;7.63;;;27.00;80.60;;;;;;4175596;28;20052;-70
2021/12/17 13:33:54;;;;;;;10.13;7.57;;;27.00;80.80;;;;;;4175823;28;20037;-70
2021/12/17 13:35:59;;;;;;;14.70;8.45;;;26.90;80.70;;;;;;4176690;28;20033;-70
2021/12/17 13:38:03;;;;;;;15.13;8.05;;;26.90;80.80;;;;;;4176411;28;20049;-70
2021/12/17 13:40:09;;;;;;;11.18;7.90;;;26.90;80.90;;;;;;4177352;28;20041;-70
2021/12/17 13:42:31;;;;;;;13.27;8.00;;;26.90;81.00;;;;;;4176203;28;20045;-70
2021/12/17 13:44:46;;;;;;;12.35;8.18;;;26.90;81.30;;;;;;4176928;28;20052;-69
2021/12/17 13:46:52;;;;;;;12.70;7.93;;;26.90;81.50;;;;;;4176127;28;20079;-69
2021/12/17 13:48:57;;;;;;;13.90;8.43;;;26.80;81.50;;;;;;4173432;28;20068;-69
2021/12/17 13:51:01;;;;;;;19.90;8.88;;;26.80;81.50;;;;;;4175193;28;20047;-69
2021/12/17 13:53:15;;;;;;;17.08;9.07;;;26.80;81.50;;;;;;4158241;28;20140;-70
2021/12/17 13:55:44;;;;;;;16.17;9.23;;;26.80;81.50;;;;;;4174043;28;20057;-69
2021/12/17 13:57:49;;;;;;;13.45;8.73;;;26.70;81.60;;;;;;4176556;28;20454;-69
2021/12/17 14:00:01;;;;;;;13.98;8.40;;;26.70;81.60;;;;;;4176836;28;20053;-69
2021/12/17 14:02:14;;;;;;;14.07;8.45;;;26.70;81.80;;;;;;4173490;28;20643;-68
2021/12/17 14:04:19;;;;;;;12.38;8.88;;;26.60;81.90;;;;;;4176453;28;20150;-70
2021/12/17 14:06:27;;;;;;;20.13;9.13;;;26.70;82.10;;;;;;4176315;28;20503;-69
2021/12/17 14:08:32;;;;;;;15.60;9.02;;;26.70;82.00;;;;;;4173938;28;20048;-70
2021/12/17 14:10:37;;;;;;;16.30;9.57;;;26.60;82.00;;;;;;4174919;28;20526;-70
2021/12/17 14:12:42;;;;;;;14.02;8.98;;;26.60;82.10;;;;;;4176436;28;20056;-69
2021/12/17 14:15:27;;;;;;;11.48;8.77;;;26.60;82.20;;;;;;4173854;28;20045;-69
2021/12/17 14:17:36;;;;;;;12.30;8.75;;;26.60;82.20;;;;;;4171862;28;20041;-69
2021/12/17 14:19:47;;;;;;;11.38;8.45;;;26.60;82.40;;;;;;4176097;28;20530;-69
2021/12/17 14:21:52;;;;;;;10.40;8.23;;;26.60;82.30;;;;;;4174572;28;20044;-69
2021/12/17 14:23:56;;;;;;;11.02;8.65;;;26.60;82.60;;;;;;4172922;28;20083;-69
2021/12/17 14:26:02;;;;;;;11.95;9.25;;;26.50;82.50;;;;;;4176368;28;20060;-69
2021/12/17 14:28:22;;;;;;;15.07;9.10;;;26.50;82.50;;;;;;4157874;28;20504;-69
2021/12/17 14:30:33;;;;;;;17.38;10.27;;;26.50;82.60;;;;;;4173863;28;20111;-69
2021/12/17 14:32:46;;;;;;;15.38;10.63;;;26.50;82.70;;;;;;4176378;28;20045;-70
2021/12/17 14:34:50;;;;;;;16.67;11.02;;;26.50;82.70;;;;;;4175811;28;20456;-70
2021/12/17 14:37:03;;;;;;;15.93;10.95;;;26.40;82.60;;;;;;4176061;28;20147;-70
2021/12/17 14:39:20;;;;;;;13.38;10.68;;;26.40;82.90;;;;;;4174405;28;20106;-69
2021/12/17 14:41:43;;;;;;;15.70;11.63;;;26.40;82.90;;;;;;4174328;28;20072;-70
2021/12/17 14:43:57;;;;;;;17.13;12.07;;;26.30;83.00;;;;;;4174228;28;20055;-70
2021/12/17 14:46:24;;;;;;;14.68;11.30;;;26.30;83.10;;;;;;4174038;28;20124;-70
2021/12/17 14:48:40;;;;;;;17.35;12.35;;;26.40;83.10;;;;;;4159450;28;20471;-69
2021/12/17 15:04:16;;;;;;;21.45;14.57;;;26.20;83.60;;;;;;4173967;28;20201;-70
2021/12/17 15:06:21;;;;;;;19.15;14.23;;;26.20;83.70;;;;;;4160249;28;20199;-69
2021/12/17 15:08:25;;;;;;;16.85;14.15;;;26.20;83.60;;;;;;4160349;28;20041;-69
2021/12/17 15:10:30;;;;;;;19.73;14.98;;;26.20;84.20;;;;;;4172368;28;20566;-69
2021/12/17 15:14:39;;;;;;;19.05;14.65;;;26.20;83.60;;;;;;4176198;28;20454;-70
2021/12/17 15:16:46;;;;;;;19.90;16.05;;;26.20;83.80;;;;;;4176338;28;20045;-70
2021/12/17 15:18:51;;;;;;;22.52;16.98;;;26.10;83.80;;;;;;4176501;28;20076;-69
2021/12/17 15:20:56;;;;;;;23.48;16.15;;;26.10;83.80;;;;;;4164693;28;20045;-70
2021/12/17 15:23:03;;;;;;;18.05;16.15;;;26.10;84.00;;;;;;4176491;28;20057;-69
2021/12/17 15:25:08;;;;;;;26.75;16.95;;;26.00;83.90;;;;;;4169130;28;20099;-69
2021/12/17 15:27:13;;;;;;;25.77;17.98;;;26.00;84.10;;;;;;4163366;28;20139;-70
2021/12/17 15:29:18;;;;;;;23.70;16.52;;;26.00;84.20;;;;;;4159787;28;20050;-69
2021/12/17 15:31:22;;;;;;;22.15;17.58;;;26.00;84.20;;;;;;4176280;28;20041;-70
2021/12/17 15:33:26;;;;;;;24.17;18.40;;;26.00;84.30;;;;;;4176185;28;20101;-70
2021/12/17 15:35:31;;;;;;;25.58;18.38;;;25.90;84.40;;;;;;4176171;28;20537;-70
2021/12/17 15:37:36;;;;;;;24.13;18.73;;;25.90;84.40;;;;;;4175721;28;20048;-70
2021/12/17 15:39:40;;;;;;;24.02;18.30;;;25.90;84.50;;;;;;4175741;28;20575;-69